sensor_id;sensor_type;location;lat;lon;timestamp;temperature;humidity
37658;DHT22;23500;53.268;8.308;2023-03-23T00:01:14;21.20;62.30
37658;DHT22;23500;53.268;8.308;2023-03-23T00:03:41;21.30;62.50
37658;DHT22;23500;53.268;8.308;2023-03-23T00:06:07;21.20;62.30
37658;DHT22;23500;53.268;8.308;2023-03-23T00:08:35;21.20;62.40
37658;DHT22;23500;53.268;8.308;2023-03-23T00:11:17;21.20;62.30
37658;DHT22;23500;53.268;8.308;2023-03-23T00:13:49;21.20;62.30
37658;DHT22;23500;53.268;8.308;2023-03-23T00:16:21;21.20;62.30
37658;DHT22;23500;53.268;8.308;2023-03-23T00:18:57;21.20;62.30
37658;DHT22;23500;53.268;8.308;2023-03-23T00:21:25;21.20;62.30
37658;DHT22;23500;53.268;8.308;2023-03-23T00:24:07;21.10;62.90
37658;DHT22;23500;53.268;8.308;2023-03-23T00:26:35;21.10;62.20
37658;DHT22;23500;53.268;8.308;2023-03-23T00:29:05;21.10;62.20
37658;DHT22;23500;53.268;8.308;2023-03-23T00:31:31;21.10;62.20
37658;DHT22;23500;53.268;8.308;2023-03-23T00:34:03;21.10;62.20
37658;DHT22;23500;53.268;8.308;2023-03-23T00:36:30;21.10;62.20
37658;DHT22;23500;53.268;8.308;2023-03-23T00:38:57;21.10;62.20
37658;DHT22;23500;53.268;8.308;2023-03-23T00:41:28;21.10;62.10
37658;DHT22;23500;53.268;8.308;2023-03-23T00:43:55;21.10;62.10
37658;DHT22;23500;53.268;8.308;2023-03-23T00:46:21;21.10;62.10
37658;DHT22;23500;53.268;8.308;2023-03-23T00:48:48;21.10;62.10
37658;DHT22;23500;53.268;8.308;2023-03-23T00:51:17;21.10;62.00
37658;DHT22;23500;53.268;8.308;2023-03-23T00:53:43;21.10;62.00
37658;DHT22;23500;53.268;8.308;2023-03-23T00:56:10;21.10;62.00
37658;DHT22;23500;53.268;8.308;2023-03-23T00:58:35;21.10;62.00
37658;DHT22;23500;53.268;8.308;2023-03-23T01:01:01;21.10;62.00
37658;DHT22;23500;53.268;8.308;2023-03-23T01:03:28;21.10;62.00
37658;DHT22;23500;53.268;8.308;2023-03-23T01:05:55;21.00;61.90
37658;DHT22;23500;53.268;8.308;2023-03-23T01:08:22;21.10;62.00
37658;DHT22;23500;53.268;8.308;2023-03-23T01:10:49;21.10;61.90
37658;DHT22;23500;53.268;8.308;2023-03-23T01:13:15;21.00;61.90
37658;DHT22;23500;53.268;8.308;2023-03-23T01:15:42;21.00;61.90
37658;DHT22;23500;53.268;8.308;2023-03-23T01:18:09;21.00;61.90
37658;DHT22;23500;53.268;8.308;2023-03-23T01:20:36;21.00;61.90
37658;DHT22;23500;53.268;8.308;2023-03-23T01:23:02;21.00;61.90
37658;DHT22;23500;53.268;8.308;2023-03-23T01:25:30;21.00;61.80
37658;DHT22;23500;53.268;8.308;2023-03-23T01:27:57;21.00;61.80
37658;DHT22;23500;53.268;8.308;2023-03-23T01:30:23;21.00;61.80
37658;DHT22;23500;53.268;8.308;2023-03-23T01:32:49;21.00;61.80
37658;DHT22;23500;53.268;8.308;2023-03-23T01:35:16;21.00;61.90
37658;DHT22;23500;53.268;8.308;2023-03-23T01:37:42;21.00;61.90
37658;DHT22;23500;53.268;8.308;2023-03-23T01:40:08;21.00;61.80
37658;DHT22;23500;53.268;8.308;2023-03-23T01:42:36;20.90;61.80
37658;DHT22;23500;53.268;8.308;2023-03-23T01:45:24;20.90;61.80
37658;DHT22;23500;53.268;8.308;2023-03-23T01:48:09;20.90;62.40
37658;DHT22;23500;53.268;8.308;2023-03-23T01:50:46;20.90;61.70
37658;DHT22;23500;53.268;8.308;2023-03-23T01:53:13;20.90;61.70
37658;DHT22;23500;53.268;8.308;2023-03-23T01:55:41;20.90;61.80
37658;DHT22;23500;53.268;8.308;2023-03-23T01:58:09;20.90;61.80
37658;DHT22;23500;53.268;8.308;2023-03-23T02:00:37;20.90;61.80
37658;DHT22;23500;53.268;8.308;2023-03-23T02:03:06;20.90;61.70
37658;DHT22;23500;53.268;8.308;2023-03-23T02:05:37;20.90;61.70
37658;DHT22;23500;53.268;8.308;2023-03-23T02:08:04;20.90;61.70
37658;DHT22;23500;53.268;8.308;2023-03-23T02:10:32;20.90;61.70
37658;DHT22;23500;53.268;8.308;2023-03-23T02:12:59;20.80;61.60
37658;DHT22;23500;53.268;8.308;2023-03-23T02:15:28;20.80;61.60
37658;DHT22;23500;53.268;8.308;2023-03-23T02:21:11;20.80;61.50
37658;DHT22;23500;53.268;8.308;2023-03-23T02:37:52;20.80;61.70
37658;DHT22;23500;53.268;8.308;2023-03-23T02:40:27;20.80;61.70
37658;DHT22;23500;53.268;8.308;2023-03-23T02:42:55;20.70;61.60
37658;DHT22;23500;53.268;8.308;2023-03-23T02:45:24;20.70;61.60
37658;DHT22;23500;53.268;8.308;2023-03-23T02:47:53;20.70;61.50
37658;DHT22;23500;53.268;8.308;2023-03-23T02:50:23;20.70;61.50
37658;DHT22;23500;53.268;8.308;2023-03-23T02:52:50;20.70;61.50
37658;DHT22;23500;53.268;8.308;2023-03-23T02:55:18;20.70;61.50
37658;DHT22;23500;53.268;8.308;2023-03-23T02:57:46;20.70;61.50
37658;DHT22;23500;53.268;8.308;2023-03-23T03:00:14;20.70;61.50
37658;DHT22;23500;53.268;8.308;2023-03-23T03:02:43;20.70;61.40
37658;DHT22;23500;53.268;8.308;2023-03-23T03:10:57;20.70;61.40
37658;DHT22;23500;53.268;8.308;2023-03-23T03:14:20;20.70;61.30
37658;DHT22;23500;53.268;8.308;2023-03-23T03:21:36;20.60;61.40
37658;DHT22;23500;53.268;8.308;2023-03-23T03:24:03;20.60;61.40
37658;DHT22;23500;53.268;8.308;2023-03-23T03:26:33;20.60;61.30
37658;DHT22;23500;53.268;8.308;2023-03-23T03:29:00;20.60;61.40
37658;DHT22;23500;53.268;8.308;2023-03-23T03:31:30;20.70;61.40
37658;DHT22;23500;53.268;8.308;2023-03-23T03:33:57;20.70;61.40
37658;DHT22;23500;53.268;8.308;2023-03-23T03:36:30;20.70;61.40
37658;DHT22;23500;53.268;8.308;2023-03-23T03:39:04;20.70;61.40
37658;DHT22;23500;53.268;8.308;2023-03-23T03:41:32;20.60;61.30
37658;DHT22;23500;53.268;8.308;2023-03-23T03:43:57;20.60;61.20
37658;DHT22;23500;53.268;8.308;2023-03-23T03:46:23;20.60;61.30
37658;DHT22;23500;53.268;8.308;2023-03-23T03:48:52;20.60;61.20
37658;DHT22;23500;53.268;8.308;2023-03-23T03:51:18;20.60;61.20
37658;DHT22;23500;53.268;8.308;2023-03-23T03:53:44;20.60;61.20
37658;DHT22;23500;53.268;8.308;2023-03-23T03:56:10;20.60;61.20
37658;DHT22;23500;53.268;8.308;2023-03-23T03:58:36;20.60;61.20
37658;DHT22;23500;53.268;8.308;2023-03-23T04:01:03;20.60;61.20
37658;DHT22;23500;53.268;8.308;2023-03-23T04:03:29;20.60;61.10
37658;DHT22;23500;53.268;8.308;2023-03-23T04:05:55;20.60;61.10
37658;DHT22;23500;53.268;8.308;2023-03-23T04:08:22;20.60;61.90
37658;DHT22;23500;53.268;8.308;2023-03-23T04:10:49;20.60;61.10
37658;DHT22;23500;53.268;8.308;2023-03-23T04:13:14;20.60;61.10
37658;DHT22;23500;53.268;8.308;2023-03-23T04:15:41;20.60;61.10
37658;DHT22;23500;53.268;8.308;2023-03-23T04:18:06;20.50;61.10
37658;DHT22;23500;53.268;8.308;2023-03-23T04:20:33;20.50;61.00
37658;DHT22;23500;53.268;8.308;2023-03-23T04:23:00;20.50;61.00
37658;DHT22;23500;53.268;8.308;2023-03-23T04:25:27;20.50;61.00
37658;DHT22;23500;53.268;8.308;2023-03-23T04:27:54;20.50;61.00
37658;DHT22;23500;53.268;8.308;2023-03-23T04:30:22;20.50;61.00
37658;DHT22;23500;53.268;8.308;2023-03-23T04:32:49;20.50;61.00
37658;DHT22;23500;53.268;8.308;2023-03-23T04:35:16;20.50;61.00
37658;DHT22;23500;53.268;8.308;2023-03-23T04:37:42;20.50;61.00
37658;DHT22;23500;53.268;8.308;2023-03-23T04:40:09;20.50;61.10
37658;DHT22;23500;53.268;8.308;2023-03-23T04:42:44;20.50;61.10
37658;DHT22;23500;53.268;8.308;2023-03-23T04:45:15;20.50;61.10
37658;DHT22;23500;53.268;8.308;2023-03-23T04:47:41;20.50;61.10
37658;DHT22;23500;53.268;8.308;2023-03-23T04:50:10;20.50;61.10
37658;DHT22;23500;53.268;8.308;2023-03-23T04:52:38;20.50;61.10
37658;DHT22;23500;53.268;8.308;2023-03-23T04:55:09;20.60;61.10
37658;DHT22;23500;53.268;8.308;2023-03-23T04:57:35;20.60;61.10
37658;DHT22;23500;53.268;8.308;2023-03-23T05:00:04;20.60;61.20
37658;DHT22;23500;53.268;8.308;2023-03-23T05:02:38;20.60;61.20
37658;DHT22;23500;53.268;8.308;2023-03-23T05:05:11;20.70;61.20
37658;DHT22;23500;53.268;8.308;2023-03-23T05:07:41;20.70;61.10
37658;DHT22;23500;53.268;8.308;2023-03-23T05:10:08;20.70;61.00
37658;DHT22;23500;53.268;8.308;2023-03-23T05:12:34;20.70;61.10
37658;DHT22;23500;53.268;8.308;2023-03-23T05:15:00;20.70;61.00
37658;DHT22;23500;53.268;8.308;2023-03-23T05:17:26;20.80;61.10
37658;DHT22;23500;53.268;8.308;2023-03-23T05:19:52;20.80;61.00
37658;DHT22;23500;53.268;8.308;2023-03-23T05:22:19;20.80;61.00
37658;DHT22;23500;53.268;8.308;2023-03-23T05:24:47;20.80;61.00
37658;DHT22;23500;53.268;8.308;2023-03-23T05:27:13;20.80;61.00
37658;DHT22;23500;53.268;8.308;2023-03-23T05:29:40;20.80;61.00
37658;DHT22;23500;53.268;8.308;2023-03-23T05:32:09;20.90;61.00
37658;DHT22;23500;53.268;8.308;2023-03-23T05:34:35;20.90;61.00
37658;DHT22;23500;53.268;8.308;2023-03-23T05:37:01;20.90;60.90
37658;DHT22;23500;53.268;8.308;2023-03-23T05:39:29;20.90;61.00
37658;DHT22;23500;53.268;8.308;2023-03-23T05:41:56;20.90;60.90
37658;DHT22;23500;53.268;8.308;2023-03-23T05:44:22;20.90;60.90
37658;DHT22;23500;53.268;8.308;2023-03-23T05:46:49;20.90;60.90
37658;DHT22;23500;53.268;8.308;2023-03-23T05:49:16;20.90;60.90
37658;DHT22;23500;53.268;8.308;2023-03-23T05:51:45;20.90;60.90
37658;DHT22;23500;53.268;8.308;2023-03-23T05:54:12;21.00;61.00
37658;DHT22;23500;53.268;8.308;2023-03-23T05:56:39;20.90;60.90
37658;DHT22;23500;53.268;8.308;2023-03-23T05:59:06;20.90;60.90
37658;DHT22;23500;53.268;8.308;2023-03-23T06:01:32;21.00;60.90
37658;DHT22;23500;53.268;8.308;2023-03-23T06:03:58;21.00;60.90
37658;DHT22;23500;53.268;8.308;2023-03-23T06:06:28;21.00;60.90
37658;DHT22;23500;53.268;8.308;2023-03-23T06:08:58;21.00;60.80
37658;DHT22;23500;53.268;8.308;2023-03-23T06:11:25;21.00;60.70
37658;DHT22;23500;53.268;8.308;2023-03-23T06:13:52;21.00;60.70
37658;DHT22;23500;53.268;8.308;2023-03-23T06:16:18;21.00;60.80
37658;DHT22;23500;53.268;8.308;2023-03-23T06:18:45;21.00;60.80
37658;DHT22;23500;53.268;8.308;2023-03-23T06:21:11;21.00;60.80
37658;DHT22;23500;53.268;8.308;2023-03-23T06:23:38;21.00;60.90
37658;DHT22;23500;53.268;8.308;2023-03-23T06:26:06;21.00;60.80
37658;DHT22;23500;53.268;8.308;2023-03-23T06:28:33;21.00;60.90
37658;DHT22;23500;53.268;8.308;2023-03-23T06:31:03;21.00;60.80
37658;DHT22;23500;53.268;8.308;2023-03-23T06:33:35;21.00;60.70
37658;DHT22;23500;53.268;8.308;2023-03-23T06:36:02;21.10;60.80
37658;DHT22;23500;53.268;8.308;2023-03-23T06:38:27;21.00;60.70
37658;DHT22;23500;53.268;8.308;2023-03-23T06:40:54;21.00;60.70
37658;DHT22;23500;53.268;8.308;2023-03-23T06:43:21;21.00;60.70
37658;DHT22;23500;53.268;8.308;2023-03-23T06:45:47;21.00;60.60
37658;DHT22;23500;53.268;8.308;2023-03-23T06:48:16;21.00;60.60
37658;DHT22;23500;53.268;8.308;2023-03-23T06:50:45;21.10;60.70
37658;DHT22;23500;53.268;8.308;2023-03-23T06:53:12;21.10;60.70
37658;DHT22;23500;53.268;8.308;2023-03-23T06:55:38;21.00;60.80
37658;DHT22;23500;53.268;8.308;2023-03-23T06:58:05;21.00;61.20
37658;DHT22;23500;53.268;8.308;2023-03-23T07:00:32;21.00;61.90
37658;DHT22;23500;53.268;8.308;2023-03-23T07:02:58;21.00;61.20
37658;DHT22;23500;53.268;8.308;2023-03-23T07:05:24;21.00;61.20
37658;DHT22;23500;53.268;8.308;2023-03-23T07:07:51;21.10;60.90
37658;DHT22;23500;53.268;8.308;2023-03-23T07:10:16;21.10;60.70
37658;DHT22;23500;53.268;8.308;2023-03-23T07:12:42;21.10;60.40
37658;DHT22;23500;53.268;8.308;2023-03-23T07:15:09;21.00;60.70
37658;DHT22;23500;53.268;8.308;2023-03-23T07:17:37;21.00;61.20
37658;DHT22;23500;53.268;8.308;2023-03-23T07:20:04;21.10;61.50
37658;DHT22;23500;53.268;8.308;2023-03-23T07:22:30;21.10;61.60
37658;DHT22;23500;53.268;8.308;2023-03-23T07:24:56;21.10;61.50
37658;DHT22;23500;53.268;8.308;2023-03-23T07:27:22;21.20;61.80
37658;DHT22;23500;53.268;8.308;2023-03-23T07:29:48;21.20;61.70
37658;DHT22;23500;53.268;8.308;2023-03-23T07:32:13;21.20;61.70
37658;DHT22;23500;53.268;8.308;2023-03-23T07:34:39;21.20;61.80
37658;DHT22;23500;53.268;8.308;2023-03-23T07:37:06;21.20;61.80
37658;DHT22;23500;53.268;8.308;2023-03-23T07:39:31;21.30;61.90
37658;DHT22;23500;53.268;8.308;2023-03-23T07:41:58;21.20;61.90
37658;DHT22;23500;53.268;8.308;2023-03-23T07:44:24;21.20;62.10
37658;DHT22;23500;53.268;8.308;2023-03-23T07:46:50;21.30;62.30
37658;DHT22;23500;53.268;8.308;2023-03-23T07:49:17;21.30;62.20
37658;DHT22;23500;53.268;8.308;2023-03-23T07:51:43;21.20;61.50
37658;DHT22;23500;53.268;8.308;2023-03-23T07:54:09;21.20;61.70
37658;DHT22;23500;53.268;8.308;2023-03-23T07:56:35;21.10;61.30
37658;DHT22;23500;53.268;8.308;2023-03-23T07:59:02;21.10;61.80
37658;DHT22;23500;53.268;8.308;2023-03-23T08:01:30;21.10;62.30
37658;DHT22;23500;53.268;8.308;2023-03-23T08:03:56;21.10;62.20
37658;DHT22;23500;53.268;8.308;2023-03-23T08:06:23;21.10;61.70
37658;DHT22;23500;53.268;8.308;2023-03-23T08:08:50;21.10;62.00
37658;DHT22;23500;53.268;8.308;2023-03-23T08:11:17;21.10;61.80
37658;DHT22;23500;53.268;8.308;2023-03-23T08:13:44;21.10;62.20
37658;DHT22;23500;53.268;8.308;2023-03-23T08:16:10;21.20;62.30
37658;DHT22;23500;53.268;8.308;2023-03-23T08:18:37;21.20;61.70
37658;DHT22;23500;53.268;8.308;2023-03-23T08:21:05;21.10;61.70
37658;DHT22;23500;53.268;8.308;2023-03-23T08:23:31;21.10;61.90
37658;DHT22;23500;53.268;8.308;2023-03-23T08:25:59;21.00;62.10
37658;DHT22;23500;53.268;8.308;2023-03-23T08:28:25;21.00;62.60
37658;DHT22;23500;53.268;8.308;2023-03-23T08:30:51;21.00;62.80
37658;DHT22;23500;53.268;8.308;2023-03-23T08:33:18;21.10;62.80
37658;DHT22;23500;53.268;8.308;2023-03-23T08:35:44;21.10;62.70
37658;DHT22;23500;53.268;8.308;2023-03-23T08:38:10;21.20;62.60
37658;DHT22;23500;53.268;8.308;2023-03-23T08:40:37;21.20;62.40
37658;DHT22;23500;53.268;8.308;2023-03-23T08:43:04;21.20;62.30
37658;DHT22;23500;53.268;8.308;2023-03-23T08:45:35;21.30;62.30
37658;DHT22;23500;53.268;8.308;2023-03-23T08:48:02;21.30;62.20
37658;DHT22;23500;53.268;8.308;2023-03-23T08:50:28;21.30;62.00
37658;DHT22;23500;53.268;8.308;2023-03-23T08:52:56;21.30;62.10
37658;DHT22;23500;53.268;8.308;2023-03-23T08:55:22;21.40;62.00
37658;DHT22;23500;53.268;8.308;2023-03-23T08:57:48;21.40;62.00
37658;DHT22;23500;53.268;8.308;2023-03-23T09:00:16;21.40;61.90
37658;DHT22;23500;53.268;8.308;2023-03-23T09:02:50;21.40;61.80
37658;DHT22;23500;53.268;8.308;2023-03-23T09:05:19;21.40;61.60
37658;DHT22;23500;53.268;8.308;2023-03-23T09:07:48;21.40;61.70
37658;DHT22;23500;53.268;8.308;2023-03-23T09:10:14;21.50;61.50
37658;DHT22;23500;53.268;8.308;2023-03-23T09:12:41;21.50;61.60
37658;DHT22;23500;53.268;8.308;2023-03-23T09:15:12;21.50;61.60
37658;DHT22;23500;53.268;8.308;2023-03-23T09:17:41;21.50;61.50
37658;DHT22;23500;53.268;8.308;2023-03-23T09:20:09;21.50;61.30
37658;DHT22;23500;53.268;8.308;2023-03-23T09:22:48;21.50;61.30
37658;DHT22;23500;53.268;8.308;2023-03-23T09:25:15;21.50;61.90
37658;DHT22;23500;53.268;8.308;2023-03-23T09:28:02;21.50;61.30
37658;DHT22;23500;53.268;8.308;2023-03-23T09:30:33;21.50;61.30
37658;DHT22;23500;53.268;8.308;2023-03-23T09:33:02;21.50;61.20
37658;DHT22;23500;53.268;8.308;2023-03-23T09:35:35;21.50;61.30
37658;DHT22;23500;53.268;8.308;2023-03-23T09:38:06;21.50;61.30
37658;DHT22;23500;53.268;8.308;2023-03-23T09:46:57;21.50;61.40
37658;DHT22;23500;53.268;8.308;2023-03-23T09:49:33;21.50;61.10
37658;DHT22;23500;53.268;8.308;2023-03-23T09:52:14;21.40;61.10
37658;DHT22;23500;53.268;8.308;2023-03-23T09:54:43;21.50;61.50
37658;DHT22;23500;53.268;8.308;2023-03-23T10:03:02;21.50;61.10
37658;DHT22;23500;53.268;8.308;2023-03-23T10:05:40;21.50;61.00
37658;DHT22;23500;53.268;8.308;2023-03-23T10:08:15;21.50;61.00
37658;DHT22;23500;53.268;8.308;2023-03-23T10:11:08;21.50;61.10
37658;DHT22;23500;53.268;8.308;2023-03-23T10:16:21;21.40;61.40
37658;DHT22;23500;53.268;8.308;2023-03-23T10:19:11;21.40;61.20
37658;DHT22;23500;53.268;8.308;2023-03-23T10:21:41;21.40;61.30
37658;DHT22;23500;53.268;8.308;2023-03-23T10:24:10;21.50;61.50
37658;DHT22;23500;53.268;8.308;2023-03-23T10:32:34;21.50;61.40
37658;DHT22;23500;53.268;8.308;2023-03-23T10:35:05;21.50;61.30
37658;DHT22;23500;53.268;8.308;2023-03-23T10:37:38;21.60;61.30
37658;DHT22;23500;53.268;8.308;2023-03-23T10:40:14;21.50;61.30
37658;DHT22;23500;53.268;8.308;2023-03-23T10:42:40;21.50;61.20
37658;DHT22;23500;53.268;8.308;2023-03-23T10:45:30;21.50;61.30
37658;DHT22;23500;53.268;8.308;2023-03-23T10:48:35;21.60;61.20
37658;DHT22;23500;53.268;8.308;2023-03-23T10:51:04;21.60;61.20
37658;DHT22;23500;53.268;8.308;2023-03-23T10:53:58;21.60;61.30
37658;DHT22;23500;53.268;8.308;2023-03-23T10:56:28;21.60;61.20
37658;DHT22;23500;53.268;8.308;2023-03-23T10:58:55;21.60;61.20
37658;DHT22;23500;53.268;8.308;2023-03-23T11:01:31;21.60;61.30
37658;DHT22;23500;53.268;8.308;2023-03-23T11:03:57;21.60;61.30
37658;DHT22;23500;53.268;8.308;2023-03-23T11:06:29;21.60;61.30
37658;DHT22;23500;53.268;8.308;2023-03-23T11:09:09;21.60;61.20
37658;DHT22;23500;53.268;8.308;2023-03-23T11:11:41;21.60;61.30
37658;DHT22;23500;53.268;8.308;2023-03-23T11:14:30;21.60;61.20
37658;DHT22;23500;53.268;8.308;2023-03-23T11:16:58;21.60;61.20
37658;DHT22;23500;53.268;8.308;2023-03-23T11:19:36;21.60;61.20
37658;DHT22;23500;53.268;8.308;2023-03-23T11:24:42;21.60;61.20
37658;DHT22;23500;53.268;8.308;2023-03-23T11:27:09;21.60;61.10
37658;DHT22;23500;53.268;8.308;2023-03-23T11:29:43;21.60;60.70
37658;DHT22;23500;53.268;8.308;2023-03-23T11:32:12;21.60;60.70
37658;DHT22;23500;53.268;8.308;2023-03-23T11:34:48;21.60;60.80
37658;DHT22;23500;53.268;8.308;2023-03-23T11:37:16;21.70;60.40
37658;DHT22;23500;53.268;8.308;2023-03-23T11:42:21;21.70;60.40
37658;DHT22;23500;53.268;8.308;2023-03-23T11:44:47;21.80;60.50
37658;DHT22;23500;53.268;8.308;2023-03-23T11:49:59;21.80;60.40
37658;DHT22;23500;53.268;8.308;2023-03-23T11:58:03;21.70;60.00
37658;DHT22;23500;53.268;8.308;2023-03-23T12:00:31;21.70;60.40
37658;DHT22;23500;53.268;8.308;2023-03-23T12:03:07;21.70;60.70
37658;DHT22;23500;53.268;8.308;2023-03-23T12:05:49;21.70;60.50
37658;DHT22;23500;53.268;8.308;2023-03-23T12:19:23;21.70;61.40
37658;DHT22;23500;53.268;8.308;2023-03-23T12:27:28;21.70;61.80
37658;DHT22;23500;53.268;8.308;2023-03-23T12:32:46;21.60;61.30
37658;DHT22;23500;53.268;8.308;2023-03-23T12:35:25;21.60;61.20
37658;DHT22;23500;53.268;8.308;2023-03-23T12:38:23;21.60;61.30
37658;DHT22;23500;53.268;8.308;2023-03-23T12:44:00;21.60;61.10
37658;DHT22;23500;53.268;8.308;2023-03-23T12:49:26;21.40;61.20
37658;DHT22;23500;53.268;8.308;2023-03-23T12:54:57;21.30;74.50
37658;DHT22;23500;53.268;8.308;2023-03-23T13:00:17;21.50;62.20
37658;DHT22;23500;53.268;8.308;2023-03-23T13:02:46;21.60;62.00
37658;DHT22;23500;53.268;8.308;2023-03-23T13:05:28;21.70;61.80
37658;DHT22;23500;53.268;8.308;2023-03-23T13:10:44;21.70;60.20
37658;DHT22;23500;53.268;8.308;2023-03-23T13:13:18;21.60;60.80
37658;DHT22;23500;53.268;8.308;2023-03-23T13:21:38;21.40;61.30
37658;DHT22;23500;53.268;8.308;2023-03-23T13:24:19;21.30;61.40
37658;DHT22;23500;53.268;8.308;2023-03-23T13:26:49;21.40;61.50
37658;DHT22;23500;53.268;8.308;2023-03-23T13:29:19;21.40;61.60
37658;DHT22;23500;53.268;8.308;2023-03-23T13:31:47;21.50;61.60
37658;DHT22;23500;53.268;8.308;2023-03-23T13:34:19;21.50;61.50
37658;DHT22;23500;53.268;8.308;2023-03-23T13:39:37;21.70;61.30
37658;DHT22;23500;53.268;8.308;2023-03-23T13:55:40;22.00;61.00
37658;DHT22;23500;53.268;8.308;2023-03-23T14:03:31;22.00;61.10
37658;DHT22;23500;53.268;8.308;2023-03-23T14:08:25;22.10;61.10
37658;DHT22;23500;53.268;8.308;2023-03-23T14:11:10;22.10;61.20
37658;DHT22;23500;53.268;8.308;2023-03-23T14:16:24;22.10;61.10
37658;DHT22;23500;53.268;8.308;2023-03-23T14:19:00;22.10;61.10
37658;DHT22;23500;53.268;8.308;2023-03-23T14:21:36;22.10;61.50
37658;DHT22;23500;53.268;8.308;2023-03-23T14:24:11;22.10;61.30
37658;DHT22;23500;53.268;8.308;2023-03-23T14:26:38;22.00;61.30
37658;DHT22;23500;53.268;8.308;2023-03-23T14:29:05;22.00;61.40
37658;DHT22;23500;53.268;8.308;2023-03-23T14:31:32;22.00;61.40
37658;DHT22;23500;53.268;8.308;2023-03-23T14:34:03;22.00;61.50
37658;DHT22;23500;53.268;8.308;2023-03-23T14:36:30;22.00;61.40
37658;DHT22;23500;53.268;8.308;2023-03-23T14:41:47;22.00;61.40
37658;DHT22;23500;53.268;8.308;2023-03-23T14:44:25;22.00;61.40
37658;DHT22;23500;53.268;8.308;2023-03-23T14:46:53;22.00;61.40
37658;DHT22;23500;53.268;8.308;2023-03-23T14:49:30;22.10;61.40
37658;DHT22;23500;53.268;8.308;2023-03-23T14:51:57;22.10;61.30
37658;DHT22;23500;53.268;8.308;2023-03-23T14:54:28;22.10;61.30
37658;DHT22;23500;53.268;8.308;2023-03-23T14:56:55;22.10;61.40
37658;DHT22;23500;53.268;8.308;2023-03-23T14:59:21;22.10;61.40
37658;DHT22;23500;53.268;8.308;2023-03-23T15:01:49;22.10;61.40
37658;DHT22;23500;53.268;8.308;2023-03-23T15:04:19;22.20;60.00
37658;DHT22;23500;53.268;8.308;2023-03-23T15:06:53;22.20;61.00
37658;DHT22;23500;53.268;8.308;2023-03-23T15:09:22;22.20;61.20
37658;DHT22;23500;53.268;8.308;2023-03-23T15:12:04;22.20;61.10
37658;DHT22;23500;53.268;8.308;2023-03-23T15:14:46;22.20;61.10
37658;DHT22;23500;53.268;8.308;2023-03-23T15:17:24;22.20;61.10
37658;DHT22;23500;53.268;8.308;2023-03-23T15:19:52;22.20;59.50
37658;DHT22;23500;53.268;8.308;2023-03-23T15:22:29;22.10;58.40
37658;DHT22;23500;53.268;8.308;2023-03-23T15:25:17;22.00;59.30
37658;DHT22;23500;53.268;8.308;2023-03-23T15:27:55;21.90;59.20
37658;DHT22;23500;53.268;8.308;2023-03-23T15:32:55;22.00;60.50
37658;DHT22;23500;53.268;8.308;2023-03-23T15:35:25;22.00;60.50
37658;DHT22;23500;53.268;8.308;2023-03-23T15:38:03;22.10;60.50
37658;DHT22;23500;53.268;8.308;2023-03-23T15:40:35;22.10;60.60
37658;DHT22;23500;53.268;8.308;2023-03-23T15:45:59;22.10;61.00
37658;DHT22;23500;53.268;8.308;2023-03-23T15:48:46;22.10;61.70
37658;DHT22;23500;53.268;8.308;2023-03-23T15:51:12;22.10;61.00
37658;DHT22;23500;53.268;8.308;2023-03-23T15:53:39;22.10;60.90
37658;DHT22;23500;53.268;8.308;2023-03-23T15:56:07;22.10;61.00
37658;DHT22;23500;53.268;8.308;2023-03-23T15:58:34;22.20;61.10
37658;DHT22;23500;53.268;8.308;2023-03-23T16:01:03;22.20;61.10
37658;DHT22;23500;53.268;8.308;2023-03-23T16:03:40;22.20;60.70
37658;DHT22;23500;53.268;8.308;2023-03-23T16:06:12;22.10;58.00
37658;DHT22;23500;53.268;8.308;2023-03-23T16:08:38;22.10;58.30
37658;DHT22;23500;53.268;8.308;2023-03-23T16:11:17;22.10;58.90
37658;DHT22;23500;53.268;8.308;2023-03-23T16:13:44;22.10;59.90
37658;DHT22;23500;53.268;8.308;2023-03-23T16:16:21;22.20;60.00
37658;DHT22;23500;53.268;8.308;2023-03-23T16:18:48;22.30;59.10
37658;DHT22;23500;53.268;8.308;2023-03-23T16:21:13;22.30;59.50
37658;DHT22;23500;53.268;8.308;2023-03-23T16:23:39;22.40;59.50
37658;DHT22;23500;53.268;8.308;2023-03-23T16:26:09;22.40;59.40
37658;DHT22;23500;53.268;8.308;2023-03-23T16:28:35;22.50;59.30
37658;DHT22;23500;53.268;8.308;2023-03-23T16:31:01;22.50;59.40
37658;DHT22;23500;53.268;8.308;2023-03-23T16:33:27;22.50;59.40
37658;DHT22;23500;53.268;8.308;2023-03-23T16:35:52;22.50;59.50
37658;DHT22;23500;53.268;8.308;2023-03-23T16:38:18;22.60;59.30
37658;DHT22;23500;53.268;8.308;2023-03-23T16:40:45;22.50;56.90
37658;DHT22;23500;53.268;8.308;2023-03-23T16:43:11;22.50;58.80
37658;DHT22;23500;53.268;8.308;2023-03-23T16:45:40;22.60;59.10
37658;DHT22;23500;53.268;8.308;2023-03-23T16:48:07;22.60;59.10
37658;DHT22;23500;53.268;8.308;2023-03-23T16:50:35;22.70;59.00
37658;DHT22;23500;53.268;8.308;2023-03-23T16:53:01;22.70;59.00
37658;DHT22;23500;53.268;8.308;2023-03-23T16:55:28;22.60;59.20
37658;DHT22;23500;53.268;8.308;2023-03-23T16:57:54;22.60;59.40
37658;DHT22;23500;53.268;8.308;2023-03-23T17:00:20;22.60;59.40
37658;DHT22;23500;53.268;8.308;2023-03-23T17:02:51;22.60;59.50
37658;DHT22;23500;53.268;8.308;2023-03-23T17:05:19;22.60;59.60
37658;DHT22;23500;53.268;8.308;2023-03-23T17:07:46;22.60;59.60
37658;DHT22;23500;53.268;8.308;2023-03-23T17:10:12;22.60;59.80
37658;DHT22;23500;53.268;8.308;2023-03-23T17:12:39;22.50;59.70
37658;DHT22;23500;53.268;8.308;2023-03-23T17:15:06;22.50;60.40
37658;DHT22;23500;53.268;8.308;2023-03-23T17:17:33;22.50;61.00
37658;DHT22;23500;53.268;8.308;2023-03-23T17:19:58;22.50;61.60
37658;DHT22;23500;53.268;8.308;2023-03-23T17:22:25;22.40;62.20
37658;DHT22;23500;53.268;8.308;2023-03-23T17:24:50;22.40;62.70
37658;DHT22;23500;53.268;8.308;2023-03-23T17:27:21;22.40;63.00
37658;DHT22;23500;53.268;8.308;2023-03-23T17:29:47;22.40;63.40
37658;DHT22;23500;53.268;8.308;2023-03-23T17:32:13;22.40;64.50
37658;DHT22;23500;53.268;8.308;2023-03-23T17:34:42;22.30;64.00
37658;DHT22;23500;53.268;8.308;2023-03-23T17:39:34;22.40;64.10
37658;DHT22;23500;53.268;8.308;2023-03-23T17:42:01;22.40;64.90
37658;DHT22;23500;53.268;8.308;2023-03-23T17:44:28;22.40;65.60
37658;DHT22;23500;53.268;8.308;2023-03-23T17:46:54;22.40;65.70
37658;DHT22;23500;53.268;8.308;2023-03-23T17:49:25;22.40;65.80
37658;DHT22;23500;53.268;8.308;2023-03-23T17:51:51;22.40;65.70
37658;DHT22;23500;53.268;8.308;2023-03-23T17:54:16;22.40;66.10
37658;DHT22;23500;53.268;8.308;2023-03-23T17:56:42;22.50;66.30
37658;DHT22;23500;53.268;8.308;2023-03-23T17:59:08;22.50;66.30
37658;DHT22;23500;53.268;8.308;2023-03-23T18:01:34;22.50;66.40
37658;DHT22;23500;53.268;8.308;2023-03-23T18:04:00;22.50;66.80